createdAt,value
2019-04-01T00:02:44.587Z,2.70
2019-04-01T00:07:35.506Z,2.40
2019-04-01T00:12:26.464Z,2.10
2019-04-01T00:17:17.390Z,1.90
2019-04-01T00:22:08.285Z,1.70
2019-04-01T00:26:59.913Z,1.50
2019-04-01T00:31:51.537Z,2.00
2019-04-01T00:36:42.429Z,2.00
2019-04-01T00:41:33.333Z,2.40
2019-04-01T00:46:24.237Z,2.20
2019-04-01T00:51:15.136Z,1.80
2019-04-01T00:56:06.764Z,1.40
2019-04-01T01:00:58.384Z,1.20
2019-04-01T01:05:49.270Z,1.20
2019-04-01T01:10:40.162Z,1.00
2019-04-01T01:15:31.053Z,0.90
2019-04-01T01:20:22.700Z,1.50
2019-04-01T01:25:14.333Z,1.70
2019-04-01T01:30:05.973Z,1.50
2019-04-01T01:34:56.865Z,1.50
2019-04-01T01:39:47.745Z,1.20
2019-04-01T01:44:38.633Z,1.00
2019-04-01T01:49:29.521Z,0.70
2019-04-01T01:54:20.431Z,0.60
2019-04-01T01:59:11.326Z,0.40
2019-04-01T02:04:02.247Z,0.40
2019-04-01T02:08:53.156Z,0.40
2019-04-01T02:13:44.057Z,1.00
2019-04-01T02:18:35.076Z,1.20
2019-04-01T02:23:25.917Z,1.00
2019-04-01T02:28:16.815Z,0.70
2019-04-01T02:33:07.706Z,0.50
2019-04-01T02:37:59.342Z,0.10
2019-04-01T02:42:50.977Z,0.00
2019-04-01T02:47:41.876Z,-0.10
2019-04-01T02:52:32.773Z,-0.20
2019-04-01T02:57:23.673Z,-0.30
2019-04-01T03:02:14.562Z,0.00
2019-04-01T03:07:05.457Z,0.70
2019-04-01T03:11:57.098Z,0.40
2019-04-01T03:16:48.730Z,0.10
2019-04-01T03:21:40.390Z,-0.10
2019-04-01T03:26:31.300Z,-0.10
2019-04-01T03:36:20.043Z,-0.40
2019-04-01T03:41:10.942Z,-0.60
2019-04-01T03:46:01.833Z,-0.70
2019-04-01T03:50:52.748Z,-0.80
2019-04-01T03:55:44.377Z,0.10
2019-04-01T04:00:35.280Z,0.10
2019-04-01T04:05:26.165Z,0.20
2019-04-01T04:10:17.058Z,-0.10
2019-04-01T04:15:07.958Z,-0.30
2019-04-01T04:19:58.929Z,-0.50
2019-04-01T04:24:49.823Z,-0.70
2019-04-01T04:29:40.802Z,-0.90
2019-04-01T04:34:31.681Z,-1.00
2019-04-01T04:39:22.583Z,-1.10
2019-04-01T04:44:13.477Z,-1.30
2019-04-01T04:49:04.373Z,-1.20
2019-04-01T04:53:56.025Z,-0.20
2019-04-01T04:58:46.908Z,-0.20
2019-04-01T05:03:39.289Z,-0.60
2019-04-01T05:08:30.939Z,-0.80
2019-04-01T05:13:21.906Z,-0.80
2019-04-01T05:18:12.833Z,-1.00
2019-04-01T05:23:03.725Z,-1.20
2019-04-01T05:27:54.617Z,-1.30
2019-04-01T05:32:45.573Z,-1.40
2019-04-01T05:37:37.145Z,-1.50
2019-04-01T05:42:28.772Z,-1.40
2019-04-01T05:47:19.662Z,-1.40
2019-04-01T05:52:10.573Z,-0.70
2019-04-01T05:57:02.070Z,-0.10
2019-04-01T06:01:52.956Z,-0.10
2019-04-01T06:06:43.845Z,-0.30
2019-04-01T06:11:34.761Z,-0.50
2019-04-01T06:16:25.654Z,-0.50
2019-04-01T06:21:16.552Z,-0.60
2019-04-01T06:26:07.446Z,-0.60
2019-04-01T06:30:58.341Z,-0.50
2019-04-01T06:35:49.236Z,-0.40
2019-04-01T06:40:40.125Z,-0.30
2019-04-01T06:45:31.086Z,-0.10
2019-04-01T06:50:21.977Z,0.50
2019-04-01T06:55:12.891Z,1.20
2019-04-01T07:00:03.781Z,1.30
2019-04-01T07:04:55.459Z,1.40
2019-04-01T07:09:46.332Z,1.40
2019-04-01T07:14:37.969Z,1.70
2019-04-01T07:19:29.609Z,1.80
2019-04-01T07:24:21.229Z,2.00
2019-04-01T07:29:12.105Z,2.00
2019-04-01T07:34:03.003Z,2.20
2019-04-01T07:38:53.888Z,2.40
2019-04-01T07:43:45.526Z,3.70
2019-04-01T07:48:37.152Z,4.00
2019-04-01T07:53:28.150Z,4.00
2019-04-01T07:58:19.037Z,4.00
2019-04-01T08:03:09.929Z,4.00
2019-04-01T08:08:01.564Z,4.00
2019-04-01T08:12:53.194Z,4.10
2019-04-01T08:17:44.816Z,4.20
2019-04-01T08:22:35.708Z,4.10
2019-04-01T08:27:26.601Z,4.30
2019-04-01T08:32:17.482Z,4.50
2019-04-01T08:37:09.110Z,5.60
2019-04-01T08:42:00.744Z,5.70
2019-04-01T08:46:51.633Z,5.70
2019-04-01T08:51:42.521Z,5.80
2019-04-01T08:56:37.911Z,5.80
2019-04-01T09:01:35.201Z,6.10
2019-04-01T09:06:15.953Z,6.10
2019-04-01T09:11:06.849Z,6.30
2019-04-01T09:15:57.746Z,6.50
2019-04-01T09:20:48.636Z,7.00
2019-04-01T09:25:39.521Z,7.70
2019-04-01T09:30:30.409Z,7.80
2019-04-01T09:35:21.294Z,7.80
2019-04-01T09:40:12.189Z,7.70
2019-04-01T09:45:03.831Z,7.70
2019-04-01T09:49:55.518Z,7.80
2019-04-01T09:54:46.409Z,7.70
2019-04-01T09:59:37.362Z,7.80
2019-04-01T10:04:28.298Z,8.20
2019-04-01T10:09:19.189Z,8.80
2019-04-01T10:14:10.073Z,8.90
2019-04-01T10:19:00.961Z,8.80
2019-04-01T10:23:51.842Z,8.80
2019-04-01T10:28:42.733Z,8.80
2019-04-01T10:33:33.676Z,8.80
2019-04-01T10:38:24.530Z,8.90
2019-04-01T10:43:15.438Z,9.40
2019-04-01T10:48:06.374Z,10.00
2019-04-01T10:52:57.276Z,10.20
2019-04-01T10:57:48.194Z,10.20
2019-04-01T11:02:39.178Z,10.30
2019-04-01T11:07:30.072Z,10.50
2019-04-01T11:12:20.913Z,10.80
2019-04-01T11:17:11.807Z,11.20
2019-04-01T11:22:03.807Z,11.80
2019-04-01T11:26:53.621Z,12.70
2019-04-01T11:31:44.517Z,13.00
2019-04-01T11:36:35.433Z,13.40
2019-04-01T11:41:26.306Z,13.80
2019-04-01T11:46:17.203Z,14.30
2019-04-01T11:51:08.866Z,15.30
2019-04-01T11:55:59.754Z,15.30
2019-04-01T12:00:51.402Z,16.60
2019-04-01T12:05:43.046Z,17.00
2019-04-01T12:10:33.934Z,16.90
2019-04-01T12:15:24.825Z,17.40
2019-04-01T12:20:15.727Z,17.80
2019-04-01T12:25:06.676Z,18.30
2019-04-01T12:29:57.578Z,18.90
2019-04-01T12:34:48.465Z,19.30
2019-04-01T12:39:40.936Z,19.50
2019-04-01T12:44:31.014Z,19.60
2019-04-01T12:49:21.902Z,19.60
2019-04-01T12:54:13.570Z,19.80
2019-04-01T12:59:04.493Z,19.80
2019-04-01T13:03:55.409Z,19.70
2019-04-01T13:08:46.310Z,19.50
2019-04-01T13:13:37.936Z,19.00
2019-04-01T13:18:29.583Z,19.00
2019-04-01T13:23:21.214Z,19.00
2019-04-01T13:28:12.854Z,18.70
2019-04-01T13:33:03.796Z,18.60
2019-04-01T13:37:54.755Z,18.40
2019-04-01T13:42:47.139Z,18.20
2019-04-01T13:47:41.211Z,18.30
2019-04-01T13:52:29.702Z,18.40
2019-04-01T13:57:21.341Z,18.00
2019-04-01T14:02:12.233Z,18.00
2019-04-01T14:07:03.158Z,17.90
2019-04-01T14:11:54.806Z,18.30
2019-04-01T14:16:46.434Z,18.50
2019-04-01T14:21:38.062Z,18.40
2019-04-01T14:26:29.697Z,18.30
2019-04-01T14:31:21.330Z,18.20
2019-04-01T14:36:12.218Z,18.20
2019-04-01T14:41:03.116Z,18.30
2019-04-01T14:45:54.009Z,18.80
2019-04-01T14:50:45.652Z,18.60
2019-04-01T14:55:36.613Z,18.60
2019-04-01T15:00:27.496Z,18.60
2019-04-01T15:05:18.393Z,18.60
2019-04-01T15:10:10.414Z,19.00
2019-04-01T15:15:01.309Z,19.00
2019-04-01T15:19:52.210Z,18.60
2019-04-01T15:24:43.174Z,18.20
2019-04-01T15:29:34.069Z,17.80
2019-04-01T15:34:24.975Z,17.80
2019-04-01T15:39:15.876Z,17.90
2019-04-01T15:44:06.772Z,17.50
2019-04-01T15:48:57.668Z,17.00
2019-04-01T15:53:48.560Z,16.60
2019-04-01T15:58:39.451Z,16.40
2019-04-01T16:03:30.406Z,16.50
2019-04-01T16:08:21.295Z,16.20
2019-04-01T16:13:12.194Z,15.70
2019-04-01T16:18:03.103Z,15.30
2019-04-01T16:22:53.996Z,15.00
2019-04-01T16:27:44.877Z,14.90
2019-04-01T16:32:35.758Z,15.10
2019-04-01T16:37:26.708Z,14.70
2019-04-01T16:42:17.597Z,14.30
2019-04-01T16:47:10.125Z,13.90
2019-04-01T16:52:00.374Z,13.60
2019-04-01T16:56:50.317Z,13.70
2019-04-01T17:01:41.648Z,13.80
2019-04-01T17:06:32.121Z,13.50
2019-04-01T17:11:23.009Z,13.10
2019-04-01T17:16:14.869Z,12.70
2019-04-01T17:21:05.837Z,12.40
2019-04-01T17:25:56.727Z,12.50
2019-04-01T17:30:47.646Z,12.70
2019-04-01T17:35:38.542Z,12.50
2019-04-01T17:40:29.425Z,12.00
2019-04-01T17:50:39.881Z,11.40
2019-04-01T17:55:30.780Z,11.40
2019-04-01T18:00:21.751Z,11.70
2019-04-01T18:05:13.390Z,11.10
2019-04-01T18:10:04.304Z,11.10
2019-04-01T18:14:55.198Z,10.80
2019-04-01T18:19:46.088Z,10.50
2019-04-01T18:24:37.048Z,10.30
2019-04-01T18:29:27.947Z,10.60
2019-04-01T18:34:18.841Z,10.70
2019-04-01T18:39:09.717Z,10.40
2019-04-01T18:44:00.613Z,10.10
2019-04-01T18:48:52.262Z,9.50
2019-04-01T18:53:43.193Z,9.50
2019-04-01T18:58:34.085Z,9.50
2019-04-01T19:03:24.973Z,9.90
2019-04-01T19:08:15.873Z,9.90
2019-04-01T19:13:11.320Z,9.60
2019-04-01T19:17:57.732Z,9.20
2019-04-01T19:22:48.606Z,9.00
2019-04-01T19:27:40.233Z,8.70
2019-04-01T19:32:31.874Z,9.10
2019-04-01T19:37:23.512Z,9.20
2019-04-01T19:42:15.163Z,8.90
2019-04-01T19:47:07.068Z,8.70
2019-04-01T19:51:57.759Z,8.60
2019-04-01T19:56:48.790Z,8.40
2019-04-01T20:01:39.687Z,8.20
2019-04-01T20:06:30.583Z,8.00
2019-04-01T20:11:21.561Z,8.40
2019-04-01T20:16:12.722Z,8.70
2019-04-01T20:21:03.378Z,8.50
2019-04-01T20:25:54.291Z,8.20
2019-04-01T20:30:45.185Z,8.00
2019-04-01T20:35:36.077Z,7.80
2019-04-01T20:40:27.765Z,7.80
2019-04-01T20:45:18.693Z,7.80
2019-04-01T20:50:09.580Z,8.30
2019-04-01T20:55:00.491Z,8.20
2019-04-01T20:59:51.411Z,7.90
2019-04-01T21:04:42.535Z,7.60
2019-04-01T21:09:33.449Z,7.40
2019-04-01T21:14:24.344Z,7.20
2019-04-01T21:19:16.311Z,7.50
2019-04-01T21:24:06.913Z,7.50
2019-04-01T21:28:58.562Z,7.60
2019-04-01T21:33:49.469Z,7.70
2019-04-01T21:38:41.123Z,7.10
2019-04-01T21:43:32.039Z,7.10
2019-04-01T21:48:22.953Z,6.90
2019-04-01T21:53:13.888Z,6.80
2019-04-01T21:58:04.801Z,6.90
2019-04-01T22:02:55.696Z,7.40
2019-04-01T22:07:47.356Z,7.10
2019-04-01T22:12:38.281Z,7.10
2019-04-01T22:17:29.169Z,6.90
2019-04-01T22:22:20.808Z,6.50
2019-04-01T22:27:12.101Z,6.50
2019-04-01T22:32:03.069Z,6.40
2019-04-01T22:36:53.987Z,6.70
2019-04-01T22:41:44.952Z,7.10
2019-04-01T22:46:35.849Z,7.00
2019-04-01T22:51:26.741Z,6.70
2019-04-01T22:56:17.638Z,6.50
2019-04-01T23:01:09.276Z,6.10
2019-04-01T23:06:00.910Z,6.10
2019-04-01T23:10:52.614Z,6.60
2019-04-01T23:15:44.162Z,6.60
2019-04-01T23:20:34.433Z,6.70
2019-04-01T23:25:26.267Z,6.50
2019-04-01T23:30:16.224Z,6.20
2019-04-01T23:35:07.853Z,5.80
2019-04-01T23:39:59.484Z,5.70
2019-04-01T23:44:51.295Z,5.80
2019-04-01T23:49:42.059Z,5.80
2019-04-01T23:54:32.956Z,6.30
2019-04-01T23:59:24.590Z,6.10
